Time;durP1;ratioP1;P1;durP2;ratioP2;P2;SDS_P1;SDS_P2;PMS_P1;PMS_P2;Temp;Humidity;BMP_temperature;BMP_pressure;BME280_temperature;BME280_humidity;BME280_pressure;Samples;Min_cycle;Max_cycle;Signal;HPM_P1;HPM_P2
2021/12/10 00:01:49;;;;;;;104.05;31.02;;;4.40;99.90;;;;;;5099025;27;20100;-69
2021/12/10 00:04:17;;;;;;;108.93;32.22;;;4.40;99.90;;;;;;5096352;28;20498;-73
2021/12/10 00:06:48;;;;;;;100.30;30.98;;;4.40;99.90;;;;;;5115420;27;20084;-73
2021/12/10 00:09:21;;;;;;;101.40;30.02;;;4.40;99.90;;;;;;5118178;27;20035;-71
2021/12/10 00:11:58;;;;;;;102.40;29.90;;;4.50;99.90;;;;;;5100987;27;20035;-74
2021/12/10 00:14:27;;;;;;;106.85;29.50;;;4.40;99.90;;;;;;5112922;27;20618;-72
2021/12/10 00:16:53;;;;;;;91.95;28.60;;;4.40;99.90;;;;;;5114010;27;20047;-73
2021/12/10 00:21:47;;;;;;;88.72;28.40;;;4.40;99.90;;;;;;5105818;27;20316;-72
2021/12/10 00:24:13;;;;;;;93.60;29.10;;;4.40;99.90;;;;;;5111203;27;20427;-73
2021/12/10 00:26:39;;;;;;;92.65;28.65;;;4.50;99.90;;;;;;5114665;27;20035;-73
2021/12/10 00:29:06;;;;;;;93.35;26.80;;;4.50;99.90;;;;;;5104536;27;20035;-73
2021/12/10 00:31:48;;;;;;;84.65;25.90;;;4.40;99.90;;;;;;5114284;27;20027;-73
2021/12/10 00:34:42;;;;;;;75.88;25.00;;;4.40;99.90;;;;;;5112941;27;20569;-73
2021/12/10 00:37:12;;;;;;;80.20;24.73;;;4.40;99.90;;;;;;5128348;27;20046;-72
2021/12/10 00:39:44;;;;;;;81.20;25.98;;;4.30;99.90;;;;;;5097238;27;20054;-72
2021/12/10 00:42:15;;;;;;;80.97;26.00;;;4.20;99.90;;;;;;5102470;27;20090;-73
2021/12/10 00:44:41;;;;;;;82.05;25.63;;;4.10;99.90;;;;;;5114855;27;20094;-73
2021/12/10 00:47:07;;;;;;;73.13;25.88;;;4.10;99.90;;;;;;5114788;27;20273;-73
2021/12/10 00:49:33;;;;;;;73.20;23.58;;;4.10;99.90;;;;;;5095648;27;20077;-73
2021/12/10 00:51:59;;;;;;;72.95;24.20;;;4.10;99.90;;;;;;5095378;27;20061;-72
2021/12/10 00:54:25;;;;;;;67.50;22.48;;;4.00;99.90;;;;;;5107509;27;20099;-73
2021/12/10 00:56:51;;;;;;;79.13;23.65;;;4.00;99.90;;;;;;5114404;27;20486;-72
2021/12/10 00:59:19;;;;;;;76.72;23.17;;;4.00;99.90;;;;;;5112731;27;20043;-72
2021/12/10 01:01:45;;;;;;;64.75;22.45;;;4.00;99.90;;;;;;5111288;27;20045;-73
2021/12/10 01:04:18;;;;;;;75.65;22.73;;;4.00;99.90;;;;;;5111202;27;20397;-72
2021/12/10 01:06:46;;;;;;;67.07;23.27;;;4.10;99.90;;;;;;5103859;27;20039;-71
2021/12/10 01:09:17;;;;;;;72.32;23.60;;;4.10;99.90;;;;;;5115950;27;20550;-72
2021/12/10 01:11:51;;;;;;;66.55;23.08;;;4.10;99.90;;;;;;5112669;27;20027;-73
2021/12/10 01:14:30;;;;;;;72.47;22.30;;;4.10;99.90;;;;;;5108305;27;20035;-72
2021/12/10 01:25:25;;;;;;;70.78;20.70;;;4.10;99.90;;;;;;5105980;27;20054;-73
2021/12/10 01:27:51;;;;;;;60.88;21.17;;;4.10;99.90;;;;;;5114413;27;20034;-73
2021/12/10 01:30:24;;;;;;;66.90;21.42;;;4.20;99.90;;;;;;5113912;27;20492;-74
2021/12/10 01:32:58;;;;;;;69.18;21.98;;;4.10;99.90;;;;;;5095983;27;20035;-72
2021/12/10 01:35:28;;;;;;;68.55;20.95;;;4.10;99.90;;;;;;5112320;27;20135;-72
2021/12/10 01:37:55;;;;;;;57.83;20.90;;;4.20;99.90;;;;;;5114846;27;20054;-71
2021/12/10 01:40:23;;;;;;;61.55;22.30;;;4.20;99.90;;;;;;5112331;27;20083;-73
2021/12/10 01:42:52;;;;;;;66.03;21.60;;;4.20;99.90;;;;;;5115596;27;20118;-72
2021/12/10 01:45:25;;;;;;;69.10;22.23;;;4.20;99.90;;;;;;5108662;27;20201;-73
2021/12/10 01:48:00;;;;;;;67.43;21.77;;;4.20;99.90;;;;;;5112342;27;20035;-73
2021/12/10 01:50:26;;;;;;;65.50;21.38;;;4.30;99.90;;;;;;5097809;27;20145;-71
2021/12/10 01:52:58;;;;;;;75.40;21.85;;;4.30;99.90;;;;;;5114185;27;20062;-72
2021/12/10 01:55:25;;;;;;;65.57;21.98;;;4.20;99.90;;;;;;5114258;27;20135;-73
2021/12/10 01:57:52;;;;;;;72.50;22.25;;;4.30;99.90;;;;;;5112396;27;20117;-72
2021/12/10 02:00:22;;;;;;;63.97;22.50;;;4.20;99.90;;;;;;5114171;27;20045;-72
2021/12/10 02:02:48;;;;;;;66.85;22.95;;;4.30;99.90;;;;;;5113839;27;20088;-73
2021/12/10 02:05:15;;;;;;;71.50;23.00;;;4.30;99.90;;;;;;5113667;27;20047;-72
2021/12/10 02:07:41;;;;;;;74.88;23.20;;;4.20;99.90;;;;;;5114282;27;20049;-72
2021/12/10 02:10:09;;;;;;;67.10;23.75;;;4.20;99.90;;;;;;5107843;28;20039;-72
2021/12/10 02:12:34;;;;;;;57.05;22.17;;;4.20;99.90;;;;;;5108409;27;20039;-73
2021/12/10 02:15:02;;;;;;;69.10;23.60;;;4.30;99.90;;;;;;5114365;27;20042;-72
2021/12/10 02:17:34;;;;;;;68.70;23.60;;;4.20;99.90;;;;;;5096316;27;20038;-71
2021/12/10 02:20:08;;;;;;;68.00;22.63;;;4.30;99.90;;;;;;5096821;27;20051;-73
2021/12/10 02:22:34;;;;;;;69.10;23.38;;;4.30;99.90;;;;;;5113449;27;20438;-73
2021/12/10 02:25:00;;;;;;;67.10;22.58;;;4.20;99.90;;;;;;5113224;27;20047;-72
2021/12/10 02:27:25;;;;;;;69.35;22.50;;;4.20;99.90;;;;;;5113387;27;20545;-71
2021/12/10 02:29:51;;;;;;;65.82;21.98;;;4.20;99.90;;;;;;5111250;27;20221;-72
2021/12/10 02:32:16;;;;;;;60.67;21.80;;;4.20;99.90;;;;;;5096239;27;20036;-71
2021/12/10 02:34:44;;;;;;;59.88;21.70;;;4.20;99.90;;;;;;5103358;27;20051;-71
2021/12/10 02:37:10;;;;;;;52.28;20.58;;;4.20;99.90;;;;;;5113306;27;20134;-69
2021/12/10 02:39:35;;;;;;;58.90;20.00;;;4.20;99.90;;;;;;5114985;27;20568;-72
2021/12/10 02:42:01;;;;;;;60.38;20.90;;;4.10;99.90;;;;;;5112600;27;20092;-71
2021/12/10 02:44:29;;;;;;;47.20;18.83;;;4.10;99.90;;;;;;5113626;27;20504;-71
2021/12/10 02:46:55;;;;;;;54.60;20.35;;;4.10;99.90;;;;;;5106864;27;20105;-72
2021/12/10 02:49:21;;;;;;;53.20;20.48;;;4.10;99.90;;;;;;5113698;27;20041;-71
2021/12/10 02:51:47;;;;;;;51.17;19.33;;;4.10;99.90;;;;;;5111535;27;20035;-71
2021/12/10 02:54:21;;;;;;;57.05;20.02;;;4.10;99.90;;;;;;5113772;28;20035;-72
2021/12/10 02:56:47;;;;;;;44.83;18.83;;;4.10;99.90;;;;;;5113104;27;20091;-72
2021/12/10 02:59:13;;;;;;;54.22;19.77;;;4.10;99.90;;;;;;5093434;27;20126;-71
2021/12/10 03:01:43;;;;;;;52.00;19.02;;;4.10;99.90;;;;;;5111652;27;20119;-71
2021/12/10 03:04:10;;;;;;;56.33;19.00;;;4.00;99.90;;;;;;5112608;28;20475;-72
2021/12/10 03:06:52;;;;;;;54.15;19.65;;;4.10;99.90;;;;;;5107635;28;20079;-71
2021/12/10 03:09:20;;;;;;;52.70;20.15;;;4.00;99.90;;;;;;5097646;27;20035;-71
2021/12/10 03:11:46;;;;;;;55.58;19.35;;;4.00;99.90;;;;;;5120117;27;20053;-72
2021/12/10 03:14:14;;;;;;;50.05;18.02;;;4.00;99.90;;;;;;5119980;27;20405;-71
2021/12/10 03:16:41;;;;;;;49.08;18.85;;;4.00;99.90;;;;;;5119930;27;20096;-71
2021/12/10 03:19:07;;;;;;;50.40;19.35;;;4.00;99.90;;;;;;5109355;27;20114;-72
2021/12/10 03:21:35;;;;;;;53.58;19.60;;;4.00;99.90;;;;;;5118963;27;20125;-71
2021/12/10 03:24:00;;;;;;;48.92;18.80;;;4.00;99.90;;;;;;5119734;27;20536;-71
2021/12/10 03:26:26;;;;;;;52.78;19.20;;;4.00;99.90;;;;;;5119782;27;20125;-72
2021/12/10 03:28:53;;;;;;;46.30;18.35;;;3.90;99.90;;;;;;5118834;27;21045;-73
2021/12/10 03:31:22;;;;;;;46.20;18.20;;;3.90;99.90;;;;;;5118665;27;20046;-73
2021/12/10 03:33:48;;;;;;;53.22;17.73;;;3.80;99.90;;;;;;5119527;27;20072;-73
2021/12/10 03:36:15;;;;;;;48.80;19.10;;;3.70;99.90;;;;;;5120533;27;20104;-71
2021/12/10 03:38:42;;;;;;;50.08;18.27;;;3.60;99.90;;;;;;5117208;27;20043;-72
2021/12/10 03:41:10;;;;;;;50.47;17.98;;;3.50;99.90;;;;;;5119322;27;20397;-73
2021/12/10 03:43:36;;;;;;;38.85;17.13;;;3.40;99.90;;;;;;5119806;27;20035;-73
2021/12/10 03:46:05;;;;;;;42.53;17.88;;;3.40;99.90;;;;;;5119638;27;20043;-73
2021/12/10 03:48:35;;;;;;;49.13;18.52;;;3.30;99.90;;;;;;5118002;27;20374;-73
2021/12/10 03:51:04;;;;;;;41.28;17.70;;;3.20;99.90;;;;;;5104303;27;20206;-72
2021/12/10 03:53:29;;;;;;;47.67;18.05;;;3.10;99.90;;;;;;5115779;27;20035;-72
2021/12/10 03:56:07;;;;;;;50.90;18.35;;;3.10;99.90;;;;;;5123851;27;20042;-72
2021/12/10 03:58:33;;;;;;;45.85;17.58;;;3.00;99.90;;;;;;5112575;27;20042;-73
2021/12/10 04:01:00;;;;;;;46.92;18.13;;;2.90;99.90;;;;;;5118853;27;20039;-72
2021/12/10 04:03:28;;;;;;;45.83;18.05;;;2.80;99.90;;;;;;5136194;27;20035;-72
2021/12/10 04:05:54;;;;;;;54.35;18.23;;;2.80;99.90;;;;;;5119400;27;20043;-73
2021/12/10 04:08:20;;;;;;;46.55;16.50;;;2.70;99.90;;;;;;5119381;27;20035;-72
2021/12/10 04:10:47;;;;;;;53.55;18.83;;;2.60;99.90;;;;;;5119366;27;20050;-73
2021/12/10 04:13:14;;;;;;;50.45;17.45;;;2.60;99.90;;;;;;5118558;27;20031;-72
2021/12/10 04:15:40;;;;;;;51.45;17.17;;;2.50;99.90;;;;;;5118188;27;20107;-73
2021/12/10 04:18:08;;;;;;;48.58;17.15;;;2.50;99.90;;;;;;5119172;27;20039;-72
2021/12/10 04:20:34;;;;;;;49.25;18.35;;;2.40;99.90;;;;;;5115336;27;20446;-73
2021/12/10 04:23:03;;;;;;;48.22;17.65;;;2.40;99.90;;;;;;5115849;27;20039;-73
2021/12/10 04:25:29;;;;;;;50.22;18.60;;;2.30;99.90;;;;;;5095859;28;20040;-72
2021/12/10 04:27:58;;;;;;;44.35;17.88;;;2.30;99.90;;;;;;5127799;27;20042;-73
2021/12/10 04:30:25;;;;;;;47.22;18.27;;;2.20;99.90;;;;;;5115213;27;20042;-73
2021/12/10 04:32:51;;;;;;;50.30;18.38;;;2.10;99.90;;;;;;5113458;27;20104;-73
2021/12/10 04:35:18;;;;;;;61.65;19.33;;;2.10;99.90;;;;;;5115987;27;20039;-73
2021/12/10 04:37:46;;;;;;;46.60;18.60;;;2.00;99.90;;;;;;5098901;27;20393;-73
2021/12/10 04:40:16;;;;;;;53.58;19.55;;;2.00;99.90;;;;;;5115110;27;20039;-73
2021/12/10 04:42:43;;;;;;;55.83;19.73;;;2.00;99.90;;;;;;5115141;27;20520;-73
2021/12/10 04:45:09;;;;;;;60.90;21.95;;;2.00;99.90;;;;;;5115196;27;20298;-73
2021/12/10 04:47:35;;;;;;;59.78;21.73;;;1.90;99.90;;;;;;5112909;27;20366;-73
2021/12/10 04:50:04;;;;;;;64.78;21.98;;;1.90;99.90;;;;;;5115248;27;20039;-72
2021/12/10 04:52:30;;;;;;;71.35;23.08;;;1.90;99.90;;;;;;5115354;27;20427;-73
2021/12/10 04:54:56;;;;;;;68.03;22.80;;;1.90;99.90;;;;;;5097763;27;20118;-73
2021/12/10 04:57:22;;;;;;;66.47;22.90;;;1.80;99.90;;;;;;5115636;27;20042;-73
2021/12/10 04:59:47;;;;;;;70.45;23.60;;;1.80;99.90;;;;;;5110436;27;20122;-73
2021/12/10 05:02:15;;;;;;;72.05;22.38;;;1.80;99.90;;;;;;5088182;28;20042;-73
2021/12/10 05:04:43;;;;;;;72.70;24.40;;;1.80;99.90;;;;;;5103649;27;20110;-73
2021/12/10 05:07:11;;;;;;;73.90;23.42;;;1.80;99.90;;;;;;5095436;27;20035;-72
2021/12/10 05:09:37;;;;;;;68.38;23.63;;;1.80;99.90;;;;;;5114479;27;20031;-73
2021/12/10 05:12:04;;;;;;;75.93;23.30;;;1.80;99.90;;;;;;5112503;27;20031;-73
2021/12/10 05:14:31;;;;;;;69.60;22.55;;;1.80;99.90;;;;;;5099102;27;20067;-73
2021/12/10 05:17:03;;;;;;;66.85;23.70;;;1.80;99.90;;;;;;5106954;27;20528;-73
2021/12/10 05:19:30;;;;;;;66.68;23.65;;;1.80;99.90;;;;;;5113410;27;20039;-72
2021/12/10 05:21:59;;;;;;;64.63;23.83;;;1.70;99.90;;;;;;5110396;27;20535;-73
2021/12/10 05:24:26;;;;;;;64.57;23.55;;;1.80;99.90;;;;;;5114207;27;20047;-73
2021/12/10 05:26:52;;;;;;;60.67;24.17;;;1.80;99.90;;;;;;5098369;27;20043;-73
2021/12/10 05:29:18;;;;;;;68.03;24.10;;;1.80;99.90;;;;;;5114198;27;20404;-73
2021/12/10 05:31:44;;;;;;;64.55;23.63;;;1.70;99.90;;;;;;5114910;27;20119;-73
2021/12/10 05:34:11;;;;;;;63.78;22.58;;;1.70;99.90;;;;;;5115098;27;20050;-73
2021/12/10 05:36:38;;;;;;;64.78;22.40;;;1.70;99.90;;;;;;5112887;27;20449;-72
2021/12/10 05:39:05;;;;;;;66.28;23.33;;;1.70;99.90;;;;;;5113961;27;20096;-73
2021/12/10 05:41:31;;;;;;;72.25;23.55;;;1.70;99.90;;;;;;5113208;27;20058;-73
2021/12/10 05:43:56;;;;;;;57.53;21.33;;;1.70;99.90;;;;;;5114728;27;20039;-73
2021/12/10 05:46:22;;;;;;;60.03;21.70;;;1.60;99.90;;;;;;5114570;27;20094;-73
2021/12/10 05:48:48;;;;;;;60.38;21.25;;;1.60;99.90;;;;;;5114420;27;20362;-73
2021/12/10 05:51:14;;;;;;;54.95;21.55;;;1.60;99.90;;;;;;5096992;27;20064;-72
2021/12/10 05:53:40;;;;;;;57.78;21.23;;;1.60;99.90;;;;;;5113828;27;20148;-71
2021/12/10 05:56:06;;;;;;;65.90;21.17;;;1.60;99.90;;;;;;5115748;27;20488;-73
2021/12/10 05:58:32;;;;;;;56.85;20.45;;;1.60;99.90;;;;;;5105553;27;20050;-73
2021/12/10 06:01:02;;;;;;;68.47;21.90;;;1.60;99.90;;;;;;5113449;27;20382;-72
2021/12/10 06:03:33;;;;;;;61.35;21.40;;;1.60;99.90;;;;;;5114504;27;20224;-72
2021/12/10 06:05:59;;;;;;;62.50;22.55;;;1.50;99.90;;;;;;5114262;27;20043;-72
2021/12/10 06:08:25;;;;;;;67.03;22.00;;;1.50;99.90;;;;;;5113720;27;20038;-72
2021/12/10 06:10:54;;;;;;;55.33;20.30;;;1.50;99.90;;;;;;5113382;27;20027;-72
2021/12/10 06:13:19;;;;;;;61.50;20.23;;;1.50;99.90;;;;;;5108765;27;20031;-73
2021/12/10 06:15:45;;;;;;;57.28;20.45;;;1.50;99.90;;;;;;5114379;27;20084;-72
2021/12/10 06:18:11;;;;;;;55.35;20.55;;;1.40;99.90;;;;;;5110525;27;20502;-73
2021/12/10 06:20:46;;;;;;;54.80;20.83;;;1.40;99.90;;;;;;5113194;27;20086;-72
2021/12/10 06:23:12;;;;;;;59.08;20.13;;;1.40;99.90;;;;;;5113329;27;20766;-72
2021/12/10 06:25:39;;;;;;;59.17;20.55;;;1.40;99.90;;;;;;5104264;27;20426;-73
2021/12/10 06:28:05;;;;;;;50.03;19.50;;;1.40;99.90;;;;;;5113760;27;20035;-71
2021/12/10 06:30:37;;;;;;;55.83;19.42;;;1.30;99.90;;;;;;5113371;27;20084;-73
2021/12/10 06:33:06;;;;;;;55.70;18.90;;;1.30;99.90;;;;;;5092195;27;20448;-72
2021/12/10 06:35:33;;;;;;;56.58;19.15;;;1.30;99.90;;;;;;5113725;27;20039;-72
2021/12/10 06:37:59;;;;;;;53.78;19.25;;;1.30;99.90;;;;;;5096811;27;20039;-72
2021/12/10 06:40:28;;;;;;;55.78;19.20;;;1.20;99.90;;;;;;5113006;27;20046;-73
2021/12/10 06:42:54;;;;;;;52.90;18.65;;;1.30;99.90;;;;;;5111206;27;20046;-71
2021/12/10 06:45:26;;;;;;;49.13;17.67;;;1.20;99.90;;;;;;5093960;27;20039;-72
2021/12/10 06:47:55;;;;;;;58.97;17.80;;;1.20;99.90;;;;;;5112788;27;20035;-72
2021/12/10 06:50:22;;;;;;;50.50;18.30;;;1.20;99.90;;;;;;5112691;27;20042;-73
2021/12/10 06:52:49;;;;;;;46.60;17.40;;;1.20;99.90;;;;;;5109051;27;20462;-73
2021/12/10 06:55:16;;;;;;;54.38;17.63;;;1.20;99.90;;;;;;5095601;27;20402;-72
2021/12/10 06:57:42;;;;;;;53.40;17.75;;;1.20;99.90;;;;;;5108794;27;20069;-72
2021/12/10 07:00:19;;;;;;;49.95;17.05;;;1.10;99.90;;;;;;5106774;28;20521;-72
2021/12/10 07:02:46;;;;;;;48.58;16.75;;;1.10;99.90;;;;;;5112454;28;20035;-74
2021/12/10 07:05:12;;;;;;;46.88;17.90;;;1.10;99.90;;;;;;5112422;28;20043;-73
2021/12/10 07:07:38;;;;;;;49.83;16.77;;;1.10;99.90;;;;;;5113663;28;20071;-70
2021/12/10 07:10:06;;;;;;;55.00;16.20;;;1.10;99.90;;;;;;5095786;28;20054;-71
2021/12/10 07:12:38;;;;;;;49.83;15.93;;;1.10;99.90;;;;;;5110180;28;20042;-72
2021/12/10 07:15:08;;;;;;;46.35;15.32;;;1.00;99.90;;;;;;5108335;28;20039;-72
2021/12/10 07:17:34;;;;;;;48.28;15.82;;;1.00;99.90;;;;;;5110896;28;20043;-73
2021/12/10 07:19:59;;;;;;;46.30;15.45;;;1.00;99.90;;;;;;5112780;28;20046;-73
2021/12/10 07:22:25;;;;;;;49.63;14.63;;;1.00;99.90;;;;;;5091911;28;20148;-72
2021/12/10 07:24:51;;;;;;;44.80;15.10;;;1.00;99.90;;;;;;5096330;28;20069;-73
2021/12/10 07:27:16;;;;;;;44.33;15.15;;;0.90;99.90;;;;;;5112960;28;20035;-73
2021/12/10 07:29:42;;;;;;;37.55;13.55;;;0.90;99.90;;;;;;5094375;28;20092;-72
2021/12/10 07:32:09;;;;;;;40.80;14.27;;;0.90;99.90;;;;;;5111582;28;20063;-74
2021/12/10 07:34:35;;;;;;;42.05;14.18;;;0.90;99.90;;;;;;5111917;28;20031;-73
2021/12/10 07:37:01;;;;;;;41.97;14.98;;;0.90;99.90;;;;;;5109989;27;20047;-73
2021/12/10 07:39:27;;;;;;;35.90;14.27;;;0.90;99.90;;;;;;5110612;28;20514;-72
2021/12/10 07:41:53;;;;;;;38.70;13.60;;;0.90;99.90;;;;;;5103668;27;20058;-71
2021/12/10 07:44:19;;;;;;;43.45;15.05;;;0.80;99.90;;;;;;5097533;27;20047;-70
2021/12/10 07:46:44;;;;;;;36.30;14.05;;;0.80;99.90;;;;;;5105455;28;20035;-70
2021/12/10 07:49:15;;;;;;;40.35;13.85;;;0.80;99.90;;;;;;5104881;27;20039;-70
2021/12/10 07:51:49;;;;;;;37.17;13.75;;;0.80;99.90;;;;;;5099802;27;20045;-71
2021/12/10 07:54:15;;;;;;;39.28;13.25;;;0.80;99.90;;;;;;5111286;28;20039;-67
2021/12/10 07:56:41;;;;;;;40.67;15.05;;;0.80;99.90;;;;;;5115156;27;20130;-67
2021/12/10 07:59:06;;;;;;;36.53;13.40;;;0.80;99.90;;;;;;5116809;27;20038;-67
2021/12/10 08:01:33;;;;;;;42.28;12.90;;;0.80;99.90;;;;;;5115562;27;20087;-70
2021/12/10 08:04:00;;;;;;;37.28;13.32;;;0.80;99.90;;;;;;5111171;27;20058;-70
2021/12/10 08:06:28;;;;;;;33.90;13.27;;;0.80;99.90;;;;;;5117374;27;20084;-70
2021/12/10 08:08:53;;;;;;;39.38;13.98;;;0.90;99.90;;;;;;5111367;27;20027;-70
2021/12/10 08:11:21;;;;;;;43.42;13.32;;;0.90;99.90;;;;;;5114438;27;20039;-70
2021/12/10 08:13:47;;;;;;;36.97;12.85;;;1.00;99.90;;;;;;5113915;27;20053;-70
2021/12/10 08:16:12;;;;;;;41.22;14.10;;;1.00;99.90;;;;;;5114295;27;20140;-71
2021/12/10 08:18:38;;;;;;;41.05;12.52;;;1.00;99.90;;;;;;5104892;27;20479;-70
2021/12/10 08:21:05;;;;;;;41.33;13.57;;;1.00;99.90;;;;;;5108726;27;20031;-70
2021/12/10 08:23:32;;;;;;;44.97;13.80;;;1.00;99.90;;;;;;5096642;27;20046;-70
2021/12/10 08:25:57;;;;;;;33.30;13.00;;;1.00;99.90;;;;;;5112020;27;20047;-70
2021/12/10 08:28:25;;;;;;;40.38;13.65;;;1.00;99.90;;;;;;5112694;27;20088;-70
2021/12/10 08:30:52;;;;;;;41.92;13.02;;;1.10;99.90;;;;;;5112139;27;20070;-72
2021/12/10 08:33:18;;;;;;;44.92;14.60;;;1.10;99.90;;;;;;5114655;27;20484;-73
2021/12/10 08:35:50;;;;;;;40.90;12.45;;;1.10;99.90;;;;;;5115561;27;20754;-68
2021/12/10 08:38:15;;;;;;;37.85;13.90;;;1.10;99.90;;;;;;5113439;27;20489;-69
2021/12/10 08:40:49;;;;;;;35.17;12.88;;;1.10;99.90;;;;;;5113180;27;20039;-66
2021/12/10 08:43:15;;;;;;;40.47;14.18;;;1.20;99.90;;;;;;5114624;27;20047;-66
2021/12/10 08:45:42;;;;;;;39.33;13.15;;;1.20;99.90;;;;;;5099906;27;20028;-67
2021/12/10 08:48:07;;;;;;;39.20;13.23;;;1.20;99.90;;;;;;5116972;27;20039;-67
2021/12/10 08:50:34;;;;;;;44.10;13.68;;;1.20;99.90;;;;;;5114321;27;20034;-66
2021/12/10 08:53:06;;;;;;;40.60;11.98;;;1.20;99.90;;;;;;5117420;27;20217;-66
2021/12/10 08:55:36;;;;;;;42.28;15.07;;;1.30;99.90;;;;;;5105154;27;20055;-68
2021/12/10 08:58:05;;;;;;;38.22;13.38;;;1.30;99.90;;;;;;5116201;27;20055;-68
2021/12/10 09:00:31;;;;;;;34.47;12.70;;;1.30;99.90;;;;;;5111323;27;20027;-67
2021/12/10 09:02:59;;;;;;;38.60;13.40;;;1.30;99.90;;;;;;5105805;27;20416;-68
2021/12/10 09:05:26;;;;;;;38.55;12.77;;;1.40;99.90;;;;;;5115511;27;20053;-68
2021/12/10 09:07:54;;;;;;;36.67;13.23;;;1.50;99.90;;;;;;5115591;27;20035;-68
2021/12/10 09:10:27;;;;;;;36.35;12.82;;;1.50;99.90;;;;;;5114762;27;20118;-68
2021/12/10 09:12:53;;;;;;;36.33;12.63;;;1.60;99.90;;;;;;5095643;27;20045;-70
2021/12/10 09:15:37;;;;;;;35.35;12.57;;;1.60;99.90;;;;;;5107744;27;20094;-69
2021/12/10 09:18:05;;;;;;;33.80;12.27;;;1.70;99.90;;;;;;5109362;27;20534;-68
2021/12/10 09:20:38;;;;;;;37.72;13.43;;;1.70;99.90;;;;;;5114175;27;20049;-68
2021/12/10 09:23:12;;;;;;;38.33;12.77;;;1.70;99.90;;;;;;5110103;28;20074;-67
2021/12/10 09:25:41;;;;;;;38.83;12.45;;;1.80;99.90;;;;;;5104836;28;20071;-68
2021/12/10 09:28:07;;;;;;;38.95;12.90;;;1.80;99.90;;;;;;5110790;27;20440;-68
2021/12/10 09:30:35;;;;;;;32.00;11.75;;;1.90;99.90;;;;;;5103519;27;20405;-67
2021/12/10 09:33:01;;;;;;;38.38;11.73;;;1.90;99.90;;;;;;5115581;27;20566;-68
2021/12/10 09:35:29;;;;;;;40.65;12.65;;;2.00;99.90;;;;;;5114575;27;21318;-68
2021/12/10 09:37:55;;;;;;;29.95;11.73;;;2.00;99.90;;;;;;5115495;27;20043;-67
2021/12/10 09:40:31;;;;;;;33.53;11.70;;;2.00;99.90;;;;;;5085538;28;20101;-68
2021/12/10 09:42:57;;;;;;;31.35;11.40;;;2.10;99.90;;;;;;5104132;27;20394;-68
2021/12/10 09:45:29;;;;;;;32.28;12.05;;;2.20;99.90;;;;;;5077041;27;20035;-67
2021/12/10 09:48:08;;;;;;;30.90;11.60;;;2.30;99.90;;;;;;5095232;28;20047;-67
2021/12/10 09:50:39;;;;;;;34.13;11.32;;;2.30;99.90;;;;;;5093693;28;20108;-68
2021/12/10 09:53:05;;;;;;;29.45;11.50;;;2.40;99.90;;;;;;5108734;27;20044;-67
2021/12/10 09:55:32;;;;;;;27.38;10.70;;;2.50;99.90;;;;;;5116370;27;20057;-68
2021/12/10 09:58:01;;;;;;;29.13;11.35;;;2.50;99.90;;;;;;5116995;27;20091;-67
2021/12/10 10:00:45;;;;;;;27.05;11.05;;;2.60;99.90;;;;;;5114912;27;20043;-67
2021/12/10 10:03:13;;;;;;;32.58;11.60;;;2.60;99.90;;;;;;5113431;27;20070;-68
2021/12/10 10:05:43;;;;;;;29.83;10.95;;;2.70;99.90;;;;;;5113091;27;20393;-67
2021/12/10 10:08:13;;;;;;;28.63;10.48;;;2.80;99.90;;;;;;5113550;27;20066;-68
2021/12/10 10:10:40;;;;;;;28.05;10.48;;;2.80;99.90;;;;;;5116482;27;20114;-68
2021/12/10 10:13:08;;;;;;;33.00;10.32;;;2.90;99.90;;;;;;5100971;27;20119;-63
2021/12/10 10:15:38;;;;;;;25.30;10.18;;;2.90;99.90;;;;;;5111722;27;20031;-64
2021/12/10 10:18:06;;;;;;;30.75;10.27;;;3.00;99.90;;;;;;5103644;27;20043;-69
2021/12/10 10:20:41;;;;;;;29.20;10.13;;;3.10;99.90;;;;;;5107375;27;20051;-67
2021/12/10 10:23:07;;;;;;;31.15;10.95;;;3.20;99.90;;;;;;5110463;27;20043;-68
2021/12/10 10:25:34;;;;;;;27.58;9.45;;;3.20;99.90;;;;;;5112731;27;20118;-68
2021/12/10 10:28:00;;;;;;;29.08;10.10;;;3.30;99.90;;;;;;5106502;27;20031;-75
2021/12/10 10:30:30;;;;;;;25.63;9.63;;;3.40;99.90;;;;;;5103755;27;20027;-72
2021/12/10 10:33:01;;;;;;;22.90;9.15;;;3.40;99.90;;;;;;5111864;27;20450;-73
2021/12/10 10:35:31;;;;;;;22.70;8.50;;;3.40;99.90;;;;;;5104312;27;20466;-74
2021/12/10 10:37:59;;;;;;;20.17;8.55;;;3.50;99.90;;;;;;5108787;27;20405;-78
2021/12/10 10:40:32;;;;;;;25.25;9.50;;;3.50;99.90;;;;;;5107307;27;20039;-77
2021/12/10 10:42:58;;;;;;;28.05;9.07;;;3.60;99.90;;;;;;5098757;27;20046;-75
2021/12/10 10:45:28;;;;;;;28.45;9.23;;;3.60;99.90;;;;;;5107580;27;20406;-76
2021/12/10 10:47:56;;;;;;;22.25;8.50;;;3.70;99.90;;;;;;5108985;27;20088;-76
2021/12/10 10:50:27;;;;;;;22.45;8.60;;;3.70;99.90;;;;;;5106790;27;20031;-75
2021/12/10 10:52:58;;;;;;;26.73;8.95;;;3.80;99.90;;;;;;5110292;27;20038;-74
2021/12/10 10:55:29;;;;;;;22.98;8.68;;;3.80;99.90;;;;;;5110979;27;20039;-74
2021/12/10 10:58:15;;;;;;;19.45;8.20;;;3.90;99.90;;;;;;5109514;28;20035;-75
2021/12/10 11:00:59;;;;;;;22.73;8.65;;;3.90;99.90;;;;;;5110215;28;20052;-76
2021/12/10 11:03:37;;;;;;;18.38;7.90;;;4.00;99.90;;;;;;5111207;28;20035;-75
2021/12/10 11:06:07;;;;;;;22.83;8.10;;;4.00;99.90;;;;;;5111105;28;20042;-74
2021/12/10 11:08:45;;;;;;;24.30;9.05;;;4.10;99.90;;;;;;5088959;28;20039;-74
2021/12/10 11:11:22;;;;;;;21.98;8.50;;;4.10;99.90;;;;;;5126083;28;20046;-74
2021/12/10 11:14:01;;;;;;;21.30;8.32;;;4.20;99.90;;;;;;5110986;28;20122;-72
2021/12/10 11:16:29;;;;;;;16.42;8.43;;;4.20;99.90;;;;;;5109768;28;20715;-74
2021/12/10 11:19:02;;;;;;;20.38;8.02;;;4.30;99.90;;;;;;5110077;28;20047;-73
2021/12/10 11:21:43;;;;;;;22.45;7.88;;;4.30;99.90;;;;;;5110749;28;20509;-75
2021/12/10 11:24:29;;;;;;;22.08;7.78;;;4.30;99.90;;;;;;5110133;28;20481;-74
2021/12/10 11:26:57;;;;;;;21.00;8.10;;;4.40;99.90;;;;;;5114844;28;20069;-68
2021/12/10 11:29:55;;;;;;;18.77;7.28;;;4.30;99.90;;;;;;5098563;27;20444;-73
2021/12/10 11:32:45;;;;;;;15.77;7.47;;;4.40;99.90;;;;;;5076459;27;20047;-72
2021/12/10 11:35:16;;;;;;;16.73;7.05;;;4.50;99.90;;;;;;5119719;27;20129;-69
2021/12/10 11:37:49;;;;;;;24.58;7.35;;;4.50;99.90;;;;;;5102440;27;20110;-71
2021/12/10 11:41:05;;;;;;;18.95;7.72;;;4.50;99.90;;;;;;5118794;27;20042;-68
2021/12/10 11:44:07;;;;;;;19.38;7.40;;;4.50;99.90;;;;;;5037416;28;20111;-70
2021/12/10 11:47:02;;;;;;;17.90;7.25;;;4.40;99.90;;;;;;5099132;28;20082;-68
2021/12/10 11:49:38;;;;;;;17.15;7.13;;;4.50;99.90;;;;;;5099037;28;20406;-70
2021/12/10 11:52:06;;;;;;;21.65;7.45;;;4.50;99.90;;;;;;5112100;27;20087;-71
2021/12/10 11:54:44;;;;;;;16.58;7.03;;;4.50;99.90;;;;;;5140372;27;20489;-70
2021/12/10 11:57:21;;;;;;;17.38;6.70;;;4.40;99.90;;;;;;5122368;27;20046;-68
2021/12/10 11:59:58;;;;;;;22.15;7.65;;;4.40;99.90;;;;;;5134866;27;20042;-72
2021/12/10 12:02:56;;;;;;;16.67;6.70;;;4.40;99.90;;;;;;5119151;27;20043;-68
2021/12/10 12:05:25;;;;;;;18.35;6.30;;;4.40;99.90;;;;;;5063325;27;20078;-70
2021/12/10 12:07:57;;;;;;;19.27;7.18;;;4.40;99.90;;;;;;5101512;28;20039;-69
2021/12/10 12:10:39;;;;;;;19.97;6.53;;;4.40;99.90;;;;;;5098891;28;20049;-71
2021/12/10 12:13:22;;;;;;;18.70;7.13;;;4.40;99.90;;;;;;5098838;28;20284;-69
2021/12/10 12:15:57;;;;;;;15.60;6.53;;;4.40;99.90;;;;;;5098845;28;20440;-69
2021/12/10 12:18:29;;;;;;;18.73;6.28;;;4.40;99.90;;;;;;5101316;27;20097;-68
2021/12/10 12:21:00;;;;;;;16.23;6.63;;;4.30;99.90;;;;;;5117412;27;20054;-74
2021/12/10 12:26:24;;;;;;;17.25;5.85;;;4.40;99.90;;;;;;5110467;27;20140;-69
2021/12/10 12:28:54;;;;;;;17.33;6.15;;;4.40;99.90;;;;;;5102142;27;20047;-69
2021/12/10 12:31:28;;;;;;;14.35;6.00;;;4.40;99.90;;;;;;5119084;27;20042;-68
2021/12/10 12:34:14;;;;;;;15.57;6.15;;;4.40;99.90;;;;;;5114783;27;20037;-74
2021/12/10 12:36:51;;;;;;;15.70;5.95;;;4.40;99.90;;;;;;5113392;27;20031;-72
2021/12/10 12:39:48;;;;;;;18.52;6.05;;;4.40;99.90;;;;;;5112311;27;20501;-72
2021/12/10 12:42:23;;;;;;;16.52;6.28;;;4.30;99.90;;;;;;5107695;27;20035;-71
2021/12/10 12:44:52;;;;;;;17.55;6.63;;;4.30;99.90;;;;;;5095118;27;20041;-72
2021/12/10 12:47:29;;;;;;;17.48;6.53;;;4.30;99.90;;;;;;5112106;27;20041;-72
2021/12/10 12:50:00;;;;;;;17.58;6.40;;;4.30;99.90;;;;;;5110516;27;20038;-71
2021/12/10 12:52:29;;;;;;;18.55;6.53;;;4.40;99.90;;;;;;5112028;27;20039;-72
2021/12/10 12:55:07;;;;;;;20.90;6.47;;;4.30;99.90;;;;;;5109013;27;20046;-72
2021/12/10 12:57:57;;;;;;;19.67;6.35;;;4.30;99.90;;;;;;5108847;27;20039;-72
2021/12/10 13:01:05;;;;;;;15.63;6.00;;;4.30;99.90;;;;;;5108325;27;20476;-72
2021/12/10 13:03:43;;;;;;;17.33;5.82;;;4.30;99.90;;;;;;5105464;27;20047;-72
2021/12/10 13:06:38;;;;;;;15.63;5.85;;;4.30;99.90;;;;;;5111927;27;20073;-68